Time,TemperatureF,DewpointF,PressureIn,WindDirection,WindDirectionDegrees,WindSpeedMPH,WindSpeedGustMPH,Humidity,HourlyPrecipIn,Conditions,Clouds,dailyrainin,SolarRadiationWatts/m^2,SoftwareType,DateUTC
2013-04-01 00:03:00,45.0,42.0,-100.00,SW,225,7.0,14.0,88,0.00,,,0.05,0.000000,,2013-04-01 04:03:00,
2013-04-01 00:14:00,45.0,42.0,-100.00,SW,225,7.0,14.0,88,0.00,,,0.05,0.000000,,2013-04-01 04:14:00,
2013-04-01 00:24:00,45.0,42.0,-100.00,SW,225,7.0,14.0,88,0.00,,,0.05,0.000000,,2013-04-01 04:24:00,
2013-04-01 00:53:00,43.0,41.0,-100.00,SSW,194,3.0,10.0,91,0.00,,,0.05,0.000000,,2013-04-01 04:53:00,
2013-04-01 01:03:00,43.0,41.0,-100.00,SSW,194,3.0,10.0,91,0.00,,,0.05,0.000000,,2013-04-01 05:03:00,
2013-04-01 01:13:00,43.0,41.0,-100.00,SSW,194,3.0,10.0,91,0.00,,,0.05,0.000000,,2013-04-01 05:13:00,
2013-04-01 01:22:00,43.0,41.0,-100.00,SSW,194,3.0,10.0,91,0.00,,,0.05,0.000000,,2013-04-01 05:22:00,
2013-04-01 01:53:00,43.0,39.0,-100.00,SSW,206,3.0,7.0,87,0.00,,,0.05,0.000000,,2013-04-01 05:53:00,
2013-04-01 02:02:00,43.0,39.0,-100.00,SSW,206,3.0,7.0,87,0.00,,,0.05,0.000000,,2013-04-01 06:02:00,
2013-04-01 02:13:00,43.0,39.0,-100.00,SSW,206,3.0,7.0,87,0.00,,,0.05,0.000000,,2013-04-01 06:13:00,
2013-04-01 02:23:00,43.0,39.0,-100.00,SSW,206,3.0,7.0,87,0.00,,,0.05,0.000000,,2013-04-01 06:23:00,
2013-04-01 02:53:00,45.0,39.0,-100.00,West,263,11.0,25.0,78,0.00,,,0.05,0.000000,,2013-04-01 06:53:00,
2013-04-01 03:03:00,45.0,39.0,-100.00,West,263,11.0,25.0,78,0.00,,,0.05,0.000000,,2013-04-01 07:03:00,
2013-04-01 03:13:00,45.0,39.0,-100.00,West,263,11.0,25.0,78,0.00,,,0.05,0.000000,,2013-04-01 07:13:00,
2013-04-01 03:22:00,45.0,39.0,-100.00,West,263,11.0,25.0,78,0.00,,,0.05,0.000000,,2013-04-01 07:22:00,
2013-04-01 03:53:00,42.0,39.0,-100.00,West,260,6.0,19.0,90,0.01,,,0.06,0.000000,,2013-04-01 07:53:00,
2013-04-01 04:03:00,42.0,39.0,-100.00,West,260,6.0,19.0,90,0.01,,,0.06,0.000000,,2013-04-01 08:03:00,
2013-04-01 04:12:00,42.0,39.0,-100.00,West,260,6.0,19.0,90,0.01,,,0.06,0.000000,,2013-04-01 08:12:00,
2013-04-01 04:22:00,42.0,39.0,-100.00,West,260,6.0,19.0,90,0.01,,,0.06,0.000000,,2013-04-01 08:22:00,
2013-04-01 04:53:00,40.0,36.0,-100.00,WSW,251,7.0,14.0,84,0.00,,,0.06,0.000000,,2013-04-01 08:53:00,
2013-04-01 05:02:00,40.0,36.0,-100.00,WSW,251,7.0,14.0,84,0.00,,,0.06,0.000000,,2013-04-01 09:02:00,
2013-04-01 05:12:00,40.0,36.0,-100.00,WSW,251,7.0,14.0,84,0.00,,,0.06,0.000000,,2013-04-01 09:12:00,
2013-04-01 05:23:00,40.0,36.0,-100.00,WSW,251,7.0,14.0,84,0.00,,,0.06,0.000000,,2013-04-01 09:23:00,
2013-04-01 05:54:00,40.0,36.0,-100.00,WSW,251,7.0,14.0,84,0.00,,,0.06,0.000000,,2013-04-01 09:54:00,
2013-04-01 06:03:00,40.0,36.0,-100.00,WSW,251,7.0,14.0,84,0.00,,,0.06,0.000000,,2013-04-01 10:03:00,
2013-04-01 06:13:00,40.0,36.0,-100.00,WSW,251,7.0,14.0,84,0.00,,,0.06,0.000000,,2013-04-01 10:13:00,
2013-04-01 06:23:00,40.0,36.0,-100.00,WSW,251,7.0,14.0,84,0.00,,,0.06,0.000000,,2013-04-01 10:23:00,
2013-04-01 06:54:00,39.0,35.0,-100.00,West,261,9.0,16.0,85,0.00,,,0.06,0.000000,,2013-04-01 10:54:00,
2013-04-01 07:03:00,39.0,35.0,-100.00,West,261,9.0,16.0,85,0.00,,,0.06,0.000000,,2013-04-01 11:03:00,
2013-04-01 07:13:00,39.0,35.0,-100.00,West,261,9.0,16.0,85,0.00,,,0.06,0.000000,,2013-04-01 11:13:00,
2013-04-01 07:23:00,39.0,35.0,-100.00,West,261,9.0,16.0,85,0.00,,,0.06,0.000000,,2013-04-01 11:23:00,
2013-04-01 07:53:00,32.0,29.0,-100.00,WNW,290,12.0,26.0,89,0.02,,,0.08,1.000000,,2013-04-01 11:53:00,
2013-04-01 08:03:00,32.0,29.0,-100.00,WNW,290,12.0,26.0,89,0.02,,,0.08,1.000000,,2013-04-01 12:03:00,
2013-04-01 08:12:00,32.0,29.0,-100.00,WNW,290,12.0,26.0,89,0.02,,,0.08,1.000000,,2013-04-01 12:12:00,
2013-04-01 08:23:00,32.0,29.0,-100.00,WNW,290,12.0,26.0,89,0.02,,,0.08,1.000000,,2013-04-01 12:23:00,
2013-04-01 08:53:00,32.0,25.0,-100.00,WNW,288,11.0,19.0,76,0.00,,,0.08,30.000000,,2013-04-01 12:53:00,
2013-04-01 09:03:00,32.0,25.0,-100.00,WNW,288,11.0,19.0,76,0.00,,,0.08,30.000000,,2013-04-01 13:03:00,
2013-04-01 09:12:00,32.0,25.0,-100.00,WNW,288,11.0,19.0,76,0.00,,,0.08,30.000000,,2013-04-01 13:12:00,
2013-04-01 09:22:00,32.0,25.0,-100.00,WNW,288,11.0,19.0,76,0.00,,,0.08,30.000000,,2013-04-01 13:22:00,
2013-04-01 09:53:00,32.0,21.0,-100.00,West,274,14.0,25.0,63,0.00,,,0.08,99.000000,,2013-04-01 13:53:00,
2013-04-01 10:04:00,32.0,21.0,-100.00,West,274,14.0,25.0,63,0.00,,,0.08,99.000000,,2013-04-01 14:04:00,
2013-04-01 10:12:00,32.0,21.0,-100.00,West,274,14.0,25.0,63,0.00,,,0.08,99.000000,,2013-04-01 14:12:00,
2013-04-01 10:23:00,32.0,21.0,-100.00,West,274,14.0,25.0,63,0.00,,,0.08,99.000000,,2013-04-01 14:23:00,
2013-04-01 10:53:00,33.0,18.0,-100.00,West,276,14.0,30.0,53,0.00,,,0.08,223.000000,,2013-04-01 14:53:00,
2013-04-01 11:03:00,33.0,18.0,-100.00,West,276,14.0,30.0,53,0.00,,,0.08,223.000000,,2013-04-01 15:03:00,
2013-04-01 11:13:00,33.0,18.0,-100.00,West,276,14.0,30.0,53,0.00,,,0.08,223.000000,,2013-04-01 15:13:00,
2013-04-01 11:23:00,33.0,18.0,-100.00,West,276,14.0,30.0,53,0.00,,,0.08,223.000000,,2013-04-01 15:23:00,
2013-04-01 11:54:00,33.0,16.0,-100.00,WNW,285,16.0,32.0,50,0.00,,,0.08,257.000000,,2013-04-01 15:54:00,
2013-04-01 12:03:00,33.0,16.0,-100.00,WNW,285,16.0,32.0,50,0.00,,,0.08,257.000000,,2013-04-01 16:03:00,
2013-04-01 12:13:00,33.0,16.0,-100.00,WNW,285,16.0,32.0,50,0.00,,,0.08,257.000000,,2013-04-01 16:13:00,
2013-04-01 12:23:00,33.0,16.0,-100.00,WNW,285,16.0,32.0,50,0.00,,,0.08,257.000000,,2013-04-01 16:23:00,
2013-04-01 13:54:00,34.0,14.0,-100.00,West,278,17.0,28.0,44,-99.99,,,0.08,408.000000,,2013-04-01 17:54:00,
2013-04-01 14:03:00,34.0,14.0,-100.00,West,278,17.0,28.0,44,-99.99,,,0.08,408.000000,,2013-04-01 18:03:00,
2013-04-01 14:12:00,34.0,14.0,-100.00,West,278,17.0,28.0,44,-99.99,,,0.08,408.000000,,2013-04-01 18:12:00,
2013-04-01 14:22:00,34.0,14.0,-100.00,West,278,17.0,28.0,44,-99.99,,,0.08,408.000000,,2013-04-01 18:22:00,
2013-04-01 14:54:00,36.0,12.0,-100.00,WNW,296,15.0,33.0,36,0.00,,,0.08,562.000000,,2013-04-01 18:54:00,
2013-04-01 15:04:00,36.0,12.0,-100.00,WNW,296,15.0,33.0,36,0.00,,,0.08,562.000000,,2013-04-01 19:04:00,
2013-04-01 15:13:00,36.0,12.0,-100.00,WNW,296,15.0,33.0,36,0.00,,,0.08,562.000000,,2013-04-01 19:13:00,
2013-04-01 15:23:00,36.0,12.0,-100.00,WNW,296,15.0,33.0,36,0.00,,,0.08,562.000000,,2013-04-01 19:23:00,
2013-04-01 15:53:00,35.0,13.0,-100.00,WNW,286,14.0,31.0,39,0.00,,,0.08,340.000000,,2013-04-01 19:53:00,
2013-04-01 16:02:00,35.0,13.0,-100.00,WNW,286,14.0,31.0,39,0.00,,,0.08,340.000000,,2013-04-01 20:02:00,
2013-04-01 16:13:00,35.0,13.0,-100.00,WNW,286,14.0,31.0,39,0.00,,,0.08,340.000000,,2013-04-01 20:13:00,
2013-04-01 16:23:00,35.0,13.0,-100.00,WNW,286,14.0,31.0,39,0.00,,,0.08,340.000000,,2013-04-01 20:23:00,
2013-04-01 16:52:00,33.0,13.0,-100.00,West,275,15.0,28.0,44,0.00,,,0.08,216.000000,,2013-04-01 20:52:00,
2013-04-01 17:03:00,33.0,13.0,-100.00,West,275,15.0,28.0,44,0.00,,,0.08,216.000000,,2013-04-01 21:03:00,
2013-04-01 17:12:00,33.0,13.0,-100.00,West,275,15.0,28.0,44,0.00,,,0.08,216.000000,,2013-04-01 21:12:00,
2013-04-01 17:23:00,33.0,13.0,-100.00,West,275,15.0,28.0,44,0.00,,,0.08,216.000000,,2013-04-01 21:23:00,
2013-04-01 17:53:00,33.0,11.0,-100.00,WNW,285,12.0,30.0,40,0.00,,,0.08,207.000000,,2013-04-01 21:53:00,
2013-04-01 18:03:00,33.0,11.0,-100.00,WNW,285,12.0,30.0,40,0.00,,,0.08,207.000000,,2013-04-01 22:03:00,
2013-04-01 18:13:00,33.0,11.0,-100.00,WNW,285,12.0,30.0,40,0.00,,,0.08,207.000000,,2013-04-01 22:13:00,
2013-04-01 18:23:00,33.0,11.0,-100.00,WNW,285,12.0,30.0,40,0.00,,,0.08,207.000000,,2013-04-01 22:23:00,
2013-04-01 18:52:00,31.0,13.0,-100.00,WNW,282,13.0,24.0,46,0.00,,,0.06,136.000000,,2013-04-01 22:52:00,
2013-04-01 19:02:00,31.0,13.0,-100.00,WNW,282,13.0,24.0,46,0.00,,,0.06,136.000000,,2013-04-01 23:02:00,
2013-04-01 19:12:00,31.0,13.0,-100.00,WNW,282,13.0,24.0,46,0.00,,,0.06,136.000000,,2013-04-01 23:12:00,
2013-04-01 19:23:00,31.0,13.0,-100.00,WNW,282,13.0,24.0,46,0.00,,,0.06,136.000000,,2013-04-01 23:23:00,
2013-04-01 19:53:00,27.0,23.0,-100.00,West,261,6.0,22.0,85,0.00,,,0.06,23.000000,,2013-04-01 23:53:00,
2013-04-01 20:03:00,27.0,23.0,-100.00,West,261,6.0,22.0,85,0.00,,,0.06,23.000000,,2013-04-02 00:03:00,
2013-04-01 20:12:00,27.0,23.0,-100.00,West,261,6.0,22.0,85,0.00,,,0.06,23.000000,,2013-04-02 00:12:00,
2013-04-01 20:22:00,27.0,23.0,-100.00,West,261,6.0,22.0,85,0.00,,,0.06,23.000000,,2013-04-02 00:22:00,
2013-04-01 20:53:00,27.0,22.0,-100.00,West,264,5.0,15.0,81,0.00,,,0.06,1.000000,,2013-04-02 00:53:00,
2013-04-01 21:03:00,27.0,22.0,-100.00,West,264,5.0,15.0,81,0.00,,,0.06,1.000000,,2013-04-02 01:03:00,
2013-04-01 21:12:00,27.0,22.0,-100.00,West,264,5.0,15.0,81,0.00,,,0.06,1.000000,,2013-04-02 01:12:00,
2013-04-01 21:22:00,27.0,22.0,-100.00,West,264,5.0,15.0,81,0.00,,,0.06,1.000000,,2013-04-02 01:22:00,
2013-04-01 21:53:00,28.0,18.0,-100.00,WNW,288,8.0,17.0,67,0.00,,,0.03,0.000000,,2013-04-02 01:53:00,
2013-04-01 22:03:00,28.0,18.0,-100.00,WNW,288,8.0,17.0,67,0.00,,,0.03,0.000000,,2013-04-02 02:03:00,
2013-04-01 22:12:00,28.0,18.0,-100.00,WNW,288,8.0,17.0,67,0.00,,,0.03,0.000000,,2013-04-02 02:12:00,
2013-04-01 22:22:00,28.0,18.0,-100.00,WNW,288,8.0,17.0,67,0.00,,,0.03,0.000000,,2013-04-02 02:22:00,
2013-04-01 22:53:00,28.0,17.0,-100.00,WNW,286,10.0,20.0,62,0.00,,,0.03,0.000000,,2013-04-02 02:53:00,
2013-04-01 23:02:00,28.0,17.0,-100.00,WNW,286,10.0,20.0,62,0.00,,,0.03,0.000000,,2013-04-02 03:02:00,
2013-04-01 23:13:00,28.0,17.0,-100.00,WNW,286,10.0,20.0,62,0.00,,,0.03,0.000000,,2013-04-02 03:13:00,
2013-04-01 23:22:00,28.0,17.0,-100.00,WNW,286,10.0,20.0,62,0.00,,,0.03,0.000000,,2013-04-02 03:22:00,
2013-04-01 23:53:00,27.0,16.0,-100.00,West,277,11.0,20.0,63,0.00,,,0.03,0.000000,,2013-04-02 03:53:00,